Delray Beach, FL

8:53 PM EDT on August 27, 2016 (GMT -0400)
J-Ball at Mizner Country Club | | Change Station

Elev 19 ft 26.43 °N, 80.18 °W | Updated 1 minute ago

Overcast
Overcast
83.3 °F
Feels Like 91 °F
N
1.0
Wind Variable Wind from NE
Gusts 1.0 mph

Today
High -- | Low -- °F
--% Chance of Precip.
Yesterday
High -- | Low -- °F
Precip. -- in
Pressure 29.91 in
Visibility 9.0 miles
Clouds Scattered Clouds 3600 ft
Mostly Cloudy 10000 ft
Heat Index 91 °F
Dew Point 76 °F
Humidity 78%
Rainfall 0.12 in
Snow Depth Not available.
6:58 AM 7:45 PM
Waning Crescent, 20% visible
SPECI KPMP 280042Z 02006KT 9SM TS SCT036 BKN100 27/24 A2991 RMK AO2 LTG DSNT W AND NW RAE18 TSE06B36 P0001 T02720244
Pressure 29.91 in
Visibility 9.0 miles
Clouds Scattered Clouds 3600 ft
Mostly Cloudy 10000 ft
Heat Index 91 °F
Dew Point 76 °F
Humidity 78%
Rainfall 0.12 in
Snow Depth Not available.
6:58 AM 7:45 PM
Waning Crescent, 20% visible
SPECI KPMP 280042Z 02006KT 9SM TS SCT036 BKN100 27/24 A2991 RMK AO2 LTG DSNT W AND NW RAE18 TSE06B36 P0001 T02720244

10-Day Weather Forecast

Almanac

Astronomy

Aug. 27, 2016 Rise Set
Actual Time
Civil Twilight
Nautical Twilight
Astronomical Twilight
Moon
Length of Visible Light
Length of Day
Tomorrow will be .
, % of the Moon is Illuminated

Today's Extremes

State Highs State Lows

Community

WunderPhotos

Upload Photos

1,935,475 photos uploaded!

WunderBlog® & News

Nearby

Air Quality

  Air Quality AQ Index Pollutant
Not available.

Snow Depth

Station Depth Elevation

Earthquake Activity

City Distance Mag. Time & Date
Minimum magnitude displayed is 2.5.

Coastal Water Temperatures

Place Temperature

Stations

Nearby Weather Stations

Station Location Temp. Windchill Dew Point Humidity Wind Precip. Elev Updated Type
                   

Watches & Warnings

There are currently no watches in effect.